Time;durP1;ratioP1;P1;durP2;ratioP2;P2;SDS_P1;SDS_P2;PMS_P1;PMS_P2;Temp;Humidity;BMP_temperature;BMP_pressure;BME280_temperature;BME280_humidity;BME280_pressure;Samples;Min_cycle;Max_cycle;Signal;HPM_P1;HPM_P2
2023/05/30 00:00:27;;;;;;;;;;;13.20;99.90;;;;;;5083806;28;19969;-70
2023/05/30 00:02:53;;;;;;;;;;;13.20;99.90;;;;;;5080825;28;19928;-69
2023/05/30 00:05:19;;;;;;;;;;;13.10;99.90;;;;;;5083110;28;19919;-68
2023/05/30 00:07:44;;;;;;;;;;;13.10;99.90;;;;;;5082912;28;20325;-67
2023/05/30 00:10:10;;;;;;;;;;;13.10;99.90;;;;;;5081550;28;19951;-71
2023/05/30 00:12:36;;;;;;;;;;;13.10;99.90;;;;;;5069720;28;19931;-68
2023/05/30 00:15:04;;;;;;;;;;;13.10;99.90;;;;;;5085816;28;19973;-68
2023/05/30 00:17:32;;;;;;;;;;;13.00;99.90;;;;;;5082630;28;20333;-69
2023/05/30 00:19:58;;;;;;;;;;;13.00;99.90;;;;;;5082566;28;19916;-68
2023/05/30 00:22:24;;;;;;;;;;;12.90;99.90;;;;;;5080367;28;19923;-70
2023/05/30 00:24:51;;;;;;;;;;;12.90;99.90;;;;;;5086361;28;20098;-70
2023/05/30 00:27:17;;;;;;;;;;;12.90;99.90;;;;;;5083600;28;19918;-71
2023/05/30 00:29:45;;;;;;;;;;;12.90;99.90;;;;;;5064187;28;20431;-69
2023/05/30 00:32:11;;;;;;;;;;;12.80;99.90;;;;;;5082819;28;19912;-67
2023/05/30 00:34:38;;;;;;;;;;;12.80;99.90;;;;;;5084891;28;19974;-68
2023/05/30 00:37:05;;;;;;;;;;;12.80;99.90;;;;;;5059612;28;19924;-69
2023/05/30 00:39:31;;;;;;;;;;;12.80;99.90;;;;;;5064525;28;19939;-68
2023/05/30 00:41:58;;;;;;;;;;;12.70;99.90;;;;;;5066238;28;20295;-67
2023/05/30 00:44:23;;;;;;;;;;;12.70;99.90;;;;;;5075895;28;19912;-69
2023/05/30 00:46:50;;;;;;;;;;;12.70;99.90;;;;;;5081261;28;20399;-67
2023/05/30 00:49:16;;;;;;;;;;;12.70;99.90;;;;;;5085845;28;19912;-72
2023/05/30 00:51:42;;;;;;;;;;;12.70;99.90;;;;;;5063453;28;20341;-67
2023/05/30 00:54:08;;;;;;;;;;;12.60;99.90;;;;;;5066144;28;20449;-69
2023/05/30 00:56:34;;;;;;;;;;;12.60;99.90;;;;;;5048988;28;19928;-69
2023/05/30 00:59:01;;;;;;;;;;;12.50;99.90;;;;;;5084501;28;20054;-69
2023/05/30 01:01:27;;;;;;;;;;;12.50;99.90;;;;;;5061921;28;19920;-69
2023/05/30 01:03:52;;;;;;;;;;;12.50;99.90;;;;;;5068381;28;19927;-70
2023/05/30 01:06:20;;;;;;;;;;;12.60;99.90;;;;;;5085551;28;19916;-70
2023/05/30 01:08:47;;;;;;;;;;;12.60;99.90;;;;;;5085231;28;20253;-68
2023/05/30 01:11:20;;;;;;;;;;;12.60;99.90;;;;;;5083923;28;21363;-70
2023/05/30 01:13:55;;;;;;;;;;;12.50;99.90;;;;;;5087320;28;20466;-69
2023/05/30 01:16:25;;;;;;;;;;;12.60;99.90;;;;;;5088086;28;19927;-69
2023/05/30 01:18:55;;;;;;;;;;;12.50;99.90;;;;;;5068808;28;20006;-70
2023/05/30 01:21:21;;;;;;;;;;;12.50;99.90;;;;;;5068208;28;19916;-70
2023/05/30 01:24:06;;;;;;;;;;;12.50;99.90;;;;;;5067280;28;19912;-68
2023/05/30 01:26:32;;;;;;;;;;;12.50;99.90;;;;;;5089038;28;19913;-68
2023/05/30 01:28:58;;;;;;;;;;;12.40;99.90;;;;;;5086871;28;19919;-70
2023/05/30 01:31:24;;;;;;;;;;;12.40;99.90;;;;;;5077886;28;19988;-70
2023/05/30 01:33:50;;;;;;;;;;;12.40;99.90;;;;;;5086350;28;20846;-68
2023/05/30 01:36:17;;;;;;;;;;;12.40;99.90;;;;;;5066559;28;20017;-67
2023/05/30 01:38:44;;;;;;;;;;;12.40;99.90;;;;;;5088854;28;20010;-70
2023/05/30 01:41:30;;;;;;;;;;;12.30;99.90;;;;;;5067267;28;19916;-71
2023/05/30 01:44:08;;;;;;;;;;;12.40;99.90;;;;;;5069163;28;20010;-71
2023/05/30 01:46:35;;;;;;;;;;;12.30;99.90;;;;;;5066283;28;20390;-68
2023/05/30 01:49:20;;;;;;;;;;;12.20;99.90;;;;;;5086982;28;20435;-71
2023/05/30 01:51:45;;;;;;;;;;;12.20;99.90;;;;;;5085405;28;19912;-68
2023/05/30 01:54:13;;;;;;;;;;;12.20;99.90;;;;;;5086845;28;19912;-69
2023/05/30 01:56:39;;;;;;;;;;;12.20;99.90;;;;;;5090414;28;20279;-69
2023/05/30 01:59:07;;;;;;;;;;;12.20;99.90;;;;;;5086772;28;19912;-69
2023/05/30 02:01:34;;;;;;;;;;;12.10;99.90;;;;;;5050862;28;19959;-70
2023/05/30 02:03:59;;;;;;;;;;;12.10;99.90;;;;;;5085976;28;19922;-69
2023/05/30 02:06:25;;;;;;;;;;;12.10;99.90;;;;;;5084742;28;20023;-69
2023/05/30 02:08:50;;;;;;;;;;;12.10;99.90;;;;;;5087262;28;19916;-69
2023/05/30 02:11:17;;;;;;;;;;;12.10;99.90;;;;;;5082346;28;19915;-70
2023/05/30 02:13:43;;;;;;;;;;;12.10;99.90;;;;;;5067627;28;19927;-70
2023/05/30 02:16:09;;;;;;;;;;;12.00;99.90;;;;;;5074396;28;20481;-72
2023/05/30 02:18:34;;;;;;;;;;;12.00;99.90;;;;;;5085539;28;19916;-70
2023/05/30 02:21:00;;;;;;;;;;;12.00;99.90;;;;;;5081802;28;19985;-70
2023/05/30 02:23:26;;;;;;;;;;;12.00;99.90;;;;;;5064450;28;19923;-69
2023/05/30 02:25:52;;;;;;;;;;;12.10;99.90;;;;;;5083475;28;19912;-69
2023/05/30 02:28:17;;;;;;;;;;;12.00;99.90;;;;;;5052137;28;19912;-70
2023/05/30 02:30:43;;;;;;;;;;;12.00;99.90;;;;;;5084409;28;19927;-68
2023/05/30 02:33:08;;;;;;;;;;;12.00;99.90;;;;;;5065558;28;19916;-68
2023/05/30 02:35:34;;;;;;;;;;;12.00;99.90;;;;;;5085808;28;20542;-68
2023/05/30 02:38:00;;;;;;;;;;;12.00;99.90;;;;;;5084814;28;19920;-68
2023/05/30 02:40:26;;;;;;;;;;;11.90;99.90;;;;;;5082465;28;19916;-68
2023/05/30 02:42:51;;;;;;;;;;;11.90;99.90;;;;;;5067945;28;19920;-68
2023/05/30 02:45:17;;;;;;;;;;;11.90;99.90;;;;;;5066285;28;20007;-70
2023/05/30 02:47:42;;;;;;;;;;;11.80;99.90;;;;;;5086181;28;19923;-72
2023/05/30 02:50:08;;;;;;;;;;;11.80;99.90;;;;;;5082930;28;20071;-72
2023/05/30 02:52:35;;;;;;;;;;;11.90;99.90;;;;;;5083392;28;19916;-69
2023/05/30 02:55:01;;;;;;;;;;;11.80;99.90;;;;;;5084393;28;19951;-67
2023/05/30 02:57:26;;;;;;;;;;;11.80;99.90;;;;;;5067645;28;19945;-68
2023/05/30 02:59:52;;;;;;;;;;;11.80;99.90;;;;;;5085436;28;20360;-68
2023/05/30 03:02:18;;;;;;;;;;;11.80;99.90;;;;;;5084520;28;19942;-68
2023/05/30 03:04:45;;;;;;;;;;;11.80;99.90;;;;;;5085081;28;19991;-68
2023/05/30 03:07:12;;;;;;;;;;;11.80;99.90;;;;;;5084154;28;19920;-68
2023/05/30 03:09:39;;;;;;;;;;;11.80;99.90;;;;;;5084955;28;19920;-69
2023/05/30 03:12:05;;;;;;;;;;;11.70;99.90;;;;;;5084053;28;19916;-70
2023/05/30 03:14:31;;;;;;;;;;;11.60;99.90;;;;;;5064729;28;19935;-68
2023/05/30 03:16:56;;;;;;;;;;;11.60;99.90;;;;;;5067641;28;20050;-69
2023/05/30 03:19:22;;;;;;;;;;;11.60;99.90;;;;;;5067044;28;20352;-69
2023/05/30 03:21:49;;;;;;;;;;;11.70;99.90;;;;;;5085941;28;20437;-70
2023/05/30 03:24:15;;;;;;;;;;;11.60;99.90;;;;;;5074900;28;19970;-70
2023/05/30 03:26:41;;;;;;;;;;;11.60;99.90;;;;;;5085466;28;19920;-70
2023/05/30 03:29:07;;;;;;;;;;;11.60;99.90;;;;;;5081990;28;20310;-68
2023/05/30 03:31:33;;;;;;;;;;;11.70;99.90;;;;;;5084568;28;19920;-68
2023/05/30 03:33:59;;;;;;;;;;;11.70;99.90;;;;;;5085374;28;20451;-69
2023/05/30 03:36:25;;;;;;;;;;;11.60;99.90;;;;;;5085129;28;19916;-69
2023/05/30 03:38:52;;;;;;;;;;;11.60;99.90;;;;;;5068392;28;20041;-68
2023/05/30 03:41:18;;;;;;;;;;;11.60;99.90;;;;;;5082957;28;19920;-68
2023/05/30 03:43:44;;;;;;;;;;;11.60;99.90;;;;;;5084975;28;20006;-67
2023/05/30 03:46:10;;;;;;;;;;;11.60;99.90;;;;;;5085374;28;19912;-68
2023/05/30 03:48:35;;;;;;;;;;;11.60;99.90;;;;;;5051269;28;19916;-70
2023/05/30 03:51:01;;;;;;;;;;;11.70;99.90;;;;;;5068051;28;19923;-69
2023/05/30 03:53:27;;;;;;;;;;;11.70;99.90;;;;;;5081358;28;20513;-70
2023/05/30 03:55:52;;;;;;;;;;;11.80;99.90;;;;;;5085796;28;20007;-70
2023/05/30 03:58:18;;;;;;;;;;;11.80;99.90;;;;;;5083650;28;19918;-68
2023/05/30 04:00:43;;;;;;;;;;;11.80;99.90;;;;;;5082840;28;19941;-70
2023/05/30 04:03:09;;;;;;;;;;;11.80;99.90;;;;;;5082075;28;19912;-71
2023/05/30 04:05:35;;;;;;;;;;;11.90;99.90;;;;;;5066760;28;19923;-70
2023/05/30 04:08:01;;;;;;;;;;;11.80;99.90;;;;;;5084213;28;19916;-69
2023/05/30 04:10:26;;;;;;;;;;;11.80;99.90;;;;;;5065912;28;19916;-69
2023/05/30 04:12:52;;;;;;;;;;;11.90;99.90;;;;;;5067116;28;20252;-69
2023/05/30 04:15:17;;;;;;;;;;;11.90;99.90;;;;;;5080007;28;19912;-69
2023/05/30 04:17:43;;;;;;;;;;;12.00;99.90;;;;;;5087943;28;19924;-69
2023/05/30 04:20:09;;;;;;;;;;;12.00;99.90;;;;;;5085272;28;19985;-69
2023/05/30 04:22:34;;;;;;;;;;;12.10;99.90;;;;;;5077010;28;19916;-70
2023/05/30 04:25:00;;;;;;;;;;;12.10;99.90;;;;;;5064616;28;19916;-71
2023/05/30 04:27:26;;;;;;;;;;;12.00;99.90;;;;;;5062622;28;19912;-71
2023/05/30 04:29:53;;;;;;;;;;;12.00;99.90;;;;;;5079466;28;19924;-67
2023/05/30 04:32:18;;;;;;;;;;;12.10;99.90;;;;;;5079237;28;19912;-69
2023/05/30 04:34:45;;;;;;;;;;;12.10;99.90;;;;;;5084279;28;19923;-70
2023/05/30 04:37:11;;;;;;;;;;;12.10;99.90;;;;;;5084879;28;19973;-69
2023/05/30 04:39:37;;;;;;;;;;;12.00;99.90;;;;;;5080751;28;20518;-69
2023/05/30 04:42:04;;;;;;;;;;;12.10;99.90;;;;;;5085224;28;19930;-68
2023/05/30 04:44:32;;;;;;;;;;;12.10;99.90;;;;;;5073764;28;20289;-71
2023/05/30 04:46:58;;;;;;;;;;;12.10;99.90;;;;;;5069341;28;19939;-69
2023/05/30 04:49:23;;;;;;;;;;;12.10;99.90;;;;;;5067783;28;20942;-69
2023/05/30 04:51:50;;;;;;;;;;;12.10;99.90;;;;;;5070014;28;20466;-69
2023/05/30 04:54:15;;;;;;;;;;;12.20;99.90;;;;;;5068219;28;19916;-72
2023/05/30 04:56:41;;;;;;;;;;;12.20;99.90;;;;;;5084540;28;20272;-70
2023/05/30 04:59:07;;;;;;;;;;;12.30;99.90;;;;;;5068478;28;19969;-69
2023/05/30 05:01:35;;;;;;;;;;;12.30;99.90;;;;;;5079745;28;20375;-68
2023/05/30 05:04:03;;;;;;;;;;;12.20;99.90;;;;;;5082585;28;19912;-68
2023/05/30 05:06:29;;;;;;;;;;;12.10;99.90;;;;;;5074790;28;20396;-72
2023/05/30 05:08:55;;;;;;;;;;;12.20;99.90;;;;;;5080525;28;19955;-71
2023/05/30 05:11:21;;;;;;;;;;;12.20;99.90;;;;;;5067839;28;19927;-69
2023/05/30 05:13:47;;;;;;;;;;;12.30;99.90;;;;;;5084087;28;19919;-70
2023/05/30 05:16:12;;;;;;;;;;;12.30;99.90;;;;;;5071055;28;19927;-68
2023/05/30 05:18:38;;;;;;;;;;;12.30;99.90;;;;;;5087095;28;20287;-69
2023/05/30 05:21:06;;;;;;;;;;;12.30;99.90;;;;;;5087860;28;19955;-70
2023/05/30 05:23:32;;;;;;;;;;;12.30;99.90;;;;;;5086024;28;19920;-69
2023/05/30 05:26:00;;;;;;;;;;;12.20;99.90;;;;;;5069567;28;19920;-70
2023/05/30 05:28:25;;;;;;;;;;;12.20;99.90;;;;;;5083579;28;19916;-69
2023/05/30 05:30:51;;;;;;;;;;;12.30;99.90;;;;;;5069278;28;19923;-71
2023/05/30 05:33:16;;;;;;;;;;;12.30;99.90;;;;;;5083360;28;19919;-70
2023/05/30 05:35:46;;;;;;;;;;;12.40;99.90;;;;;;5085798;28;20264;-69
2023/05/30 05:38:12;;;;;;;;;;;12.30;99.90;;;;;;5068866;28;19920;-70
2023/05/30 05:40:37;;;;;;;;;;;12.30;99.90;;;;;;5083290;28;19927;-69
2023/05/30 05:43:03;;;;;;;;;;;12.20;99.90;;;;;;5049606;28;19920;-68
2023/05/30 05:45:29;;;;;;;;;;;12.30;99.90;;;;;;5084474;28;20728;-70
2023/05/30 05:47:55;;;;;;;;;;;12.20;99.90;;;;;;5086030;28;20404;-70
2023/05/30 05:50:21;;;;;;;;;;;12.20;99.90;;;;;;5088087;28;19916;-70
2023/05/30 05:52:47;;;;;;;;;;;12.30;99.90;;;;;;5070945;28;19912;-68
2023/05/30 05:55:12;;;;;;;;;;;12.30;99.90;;;;;;5084809;28;20425;-69
2023/05/30 05:57:38;;;;;;;;;;;12.30;99.90;;;;;;5085143;28;19920;-69
2023/05/30 06:00:05;;;;;;;;;;;12.40;99.90;;;;;;5085676;28;19927;-69
2023/05/30 06:02:31;;;;;;;;;;;12.40;99.90;;;;;;5087193;28;19916;-69
2023/05/30 06:04:57;;;;;;;;;;;12.40;99.90;;;;;;5086057;28;19920;-68
2023/05/30 06:07:23;;;;;;;;;;;12.40;99.90;;;;;;5068244;28;19943;-69
2023/05/30 06:09:49;;;;;;;;;;;12.50;99.90;;;;;;5070333;28;20490;-70
2023/05/30 06:12:15;;;;;;;;;;;12.50;99.90;;;;;;5084752;28;19916;-68
2023/05/30 06:14:40;;;;;;;;;;;12.60;99.90;;;;;;5083057;28;20449;-69
2023/05/30 06:17:07;;;;;;;;;;;12.60;99.90;;;;;;5066929;28;19920;-69
2023/05/30 06:19:32;;;;;;;;;;;12.60;99.90;;;;;;5083941;28;19916;-70
2023/05/30 06:21:58;;;;;;;;;;;12.60;99.90;;;;;;5065883;28;19922;-70
2023/05/30 06:24:23;;;;;;;;;;;12.60;99.90;;;;;;5068294;28;19923;-70
2023/05/30 06:26:49;;;;;;;;;;;12.60;99.90;;;;;;5085896;28;20001;-69
2023/05/30 06:29:15;;;;;;;;;;;12.70;99.90;;;;;;5075683;28;20343;-69
2023/05/30 06:31:40;;;;;;;;;;;12.80;99.90;;;;;;5085327;28;20028;-69
2023/05/30 06:34:06;;;;;;;;;;;12.80;99.90;;;;;;5065524;28;19962;-70
2023/05/30 06:36:32;;;;;;;;;;;13.00;99.90;;;;;;5086980;28;19959;-70
2023/05/30 06:38:58;;;;;;;;;;;13.10;99.90;;;;;;5072028;28;19959;-70
2023/05/30 06:41:23;;;;;;;;;;;13.10;99.90;;;;;;5084695;28;19916;-70
2023/05/30 06:43:50;;;;;;;;;;;13.10;99.90;;;;;;5062234;28;19916;-69
2023/05/30 06:46:16;;;;;;;;;;;13.10;99.90;;;;;;5080221;28;19958;-70
2023/05/30 06:48:42;;;;;;;;;;;13.20;99.90;;;;;;5063715;28;19920;-71
2023/05/30 06:51:07;;;;;;;;;;;13.10;99.90;;;;;;5082826;28;19916;-70
2023/05/30 06:53:34;;;;;;;;;;;13.20;99.90;;;;;;5065859;28;19926;-74
2023/05/30 06:55:59;;;;;;;;;;;13.10;99.90;;;;;;5082359;28;19912;-71
2023/05/30 06:58:25;;;;;;;;;;;13.20;99.90;;;;;;5066599;28;20789;-71
2023/05/30 07:00:52;;;;;;;;;;;13.20;99.90;;;;;;5083297;28;19927;-74
2023/05/30 07:03:18;;;;;;;;;;;13.30;99.90;;;;;;5076600;28;20003;-71
2023/05/30 07:05:43;;;;;;;;;;;13.30;99.90;;;;;;5084988;28;20451;-71
2023/05/30 07:08:10;;;;;;;;;;;13.40;99.90;;;;;;5083894;28;20374;-71
2023/05/30 07:10:36;;;;;;;;;;;13.40;99.90;;;;;;5083962;28;19916;-70
2023/05/30 07:13:02;;;;;;;;;;;13.20;99.90;;;;;;5066824;28;20432;-71
2023/05/30 07:15:31;;;;;;;;;;;13.30;99.90;;;;;;5065454;28;19923;-72
2023/05/30 07:17:57;;;;;;;;;;;13.20;99.90;;;;;;5064065;28;19920;-71
2023/05/30 07:20:23;;;;;;;;;;;13.30;99.90;;;;;;5080591;28;19961;-74
2023/05/30 07:22:51;;;;;;;;;;;13.40;99.90;;;;;;5066748;28;19989;-76
2023/05/30 07:25:18;;;;;;;;;;;13.40;99.90;;;;;;5052522;28;20037;-73
2023/05/30 07:27:44;;;;;;;;;;;13.50;99.90;;;;;;5071645;28;19956;-75
2023/05/30 07:30:10;;;;;;;;;;;13.50;99.90;;;;;;5085821;28;20012;-71
2023/05/30 07:32:35;;;;;;;;;;;13.50;99.90;;;;;;5067422;28;19916;-74
2023/05/30 07:35:01;;;;;;;;;;;13.50;99.90;;;;;;5068353;28;20425;-72
2023/05/30 07:37:27;;;;;;;;;;;13.50;99.90;;;;;;5066404;28;19989;-72
2023/05/30 07:39:52;;;;;;;;;;;13.40;99.90;;;;;;5084224;28;20405;-75
2023/05/30 07:42:18;;;;;;;;;;;13.40;99.90;;;;;;5085235;28;19920;-70
2023/05/30 07:44:44;;;;;;;;;;;13.40;99.90;;;;;;5087830;28;19912;-73
2023/05/30 07:47:09;;;;;;;;;;;13.30;99.90;;;;;;5068439;28;19908;-73
2023/05/30 07:49:36;;;;;;;;;;;13.40;99.90;;;;;;5067786;28;20053;-75
2023/05/30 07:52:01;;;;;;;;;;;13.50;99.90;;;;;;5085944;28;19912;-72
2023/05/30 07:54:27;;;;;;;;;;;13.50;99.90;;;;;;5081423;28;19919;-73
2023/05/30 07:56:53;;;;;;;;;;;13.50;99.90;;;;;;5086709;28;20018;-73
2023/05/30 07:59:19;;;;;;;;;;;13.50;99.90;;;;;;5082301;28;19912;-73
2023/05/30 08:01:45;;;;;;;;;;;13.50;99.90;;;;;;5067366;28;19912;-73
2023/05/30 08:04:10;;;;;;;;;;;13.60;99.90;;;;;;5066551;28;19908;-74
2023/05/30 08:06:36;;;;;;;;;;;13.60;99.90;;;;;;5071929;28;20301;-72
2023/05/30 08:09:02;;;;;;;;;;;13.60;99.90;;;;;;5067377;28;19997;-72
2023/05/30 08:11:27;;;;;;;;;;;13.60;99.90;;;;;;5085850;28;19938;-73
2023/05/30 08:13:53;;;;;;;;;;;13.70;99.90;;;;;;5055798;28;20290;-73
2023/05/30 08:16:20;;;;;;;;;;;13.70;99.90;;;;;;5080740;28;19923;-72
2023/05/30 08:18:45;;;;;;;;;;;13.70;99.90;;;;;;5071722;28;20003;-72
2023/05/30 08:21:11;;;;;;;;;;;13.70;99.90;;;;;;5090872;28;19995;-71
2023/05/30 08:23:37;;;;;;;;;;;13.80;99.90;;;;;;5088745;28;19908;-72
2023/05/30 08:26:03;;;;;;;;;;;13.80;99.90;;;;;;5091428;28;20069;-71
2023/05/30 08:28:30;;;;;;;;;;;13.70;99.90;;;;;;5086539;28;19943;-71
2023/05/30 08:30:55;;;;;;;;;;;13.80;99.90;;;;;;5071637;28;20375;-71
2023/05/30 08:33:21;;;;;;;;;;;13.80;99.90;;;;;;5073017;28;19938;-74
2023/05/30 08:35:47;;;;;;;;;;;13.90;99.90;;;;;;5090115;28;20332;-74
2023/05/30 08:38:13;;;;;;;;;;;13.90;99.90;;;;;;5071420;28;19946;-73
2023/05/30 08:40:42;;;;;;;;;;;14.00;99.90;;;;;;5072398;28;20321;-72
2023/05/30 08:43:08;;;;;;;;;;;13.90;99.90;;;;;;5072901;28;19955;-73
2023/05/30 08:45:34;;;;;;;;;;;13.90;99.90;;;;;;5072990;28;19951;-73
2023/05/30 08:48:01;;;;;;;;;;;14.00;99.90;;;;;;5069861;28;19923;-73
2023/05/30 08:50:28;;;;;;;;;;;14.00;99.90;;;;;;5071490;28;20182;-72
2023/05/30 08:52:54;;;;;;;;;;;14.00;99.90;;;;;;5071791;28;19973;-73
2023/05/30 08:55:30;;;;;;;;;;;14.10;99.90;;;;;;5055127;28;19912;-73
2023/05/30 08:57:58;;;;;;;;;;;14.00;99.90;;;;;;5088714;28;19967;-73
2023/05/30 09:00:24;;;;;;;;;;;14.00;99.90;;;;;;5090819;28;19915;-72
2023/05/30 09:02:54;;;;;;;;;;;14.00;99.90;;;;;;5079206;28;20031;-71
2023/05/30 09:05:20;;;;;;;;;;;13.90;99.90;;;;;;5088883;28;19965;-72
2023/05/30 09:07:47;;;;;;;;;;;14.00;99.90;;;;;;5070620;28;19916;-71
2023/05/30 09:10:15;;;;;;;;;;;14.10;99.90;;;;;;5081282;28;19960;-73
2023/05/30 09:12:43;;;;;;;;;;;14.20;99.90;;;;;;5071602;28;19912;-73
2023/05/30 09:15:10;;;;;;;;;;;14.20;99.90;;;;;;5082606;28;19963;-73
2023/05/30 09:17:36;;;;;;;;;;;14.10;99.90;;;;;;5054157;28;20467;-72
2023/05/30 09:20:02;;;;;;;;;;;14.20;99.90;;;;;;5068535;28;19919;-72
2023/05/30 09:22:28;;;;;;;;;;;14.20;99.90;;;;;;5088307;28;20336;-73
2023/05/30 09:24:59;;;;;;;;;;;14.20;99.90;;;;;;5088698;28;19916;-73
2023/05/30 09:27:25;;;;;;;;;;;14.30;99.90;;;;;;5081191;28;19908;-72
2023/05/30 09:29:51;;;;;;;;;;;14.30;99.90;;;;;;5088158;28;20240;-74
2023/05/30 09:32:17;;;;;;;;;;;14.20;99.90;;;;;;5090560;28;19965;-73
2023/05/30 09:34:56;;;;;;;;;;;14.30;99.90;;;;;;5070256;28;20335;-73
2023/05/30 09:37:23;;;;;;;;;;;14.30;99.90;;;;;;5086167;28;20791;-72
2023/05/30 09:40:06;;;;;;;;;;;14.40;99.90;;;;;;5072043;28;19980;-73
2023/05/30 09:42:37;;;;;;;;;;;14.40;99.90;;;;;;5070348;28;19908;-71
2023/05/30 09:45:05;;;;;;;;;;;14.40;99.90;;;;;;5081538;28;19947;-71
2023/05/30 09:47:34;;;;;;;;;;;14.40;99.90;;;;;;5068252;28;19919;-72
2023/05/30 09:50:01;;;;;;;;;;;14.40;99.90;;;;;;5070736;28;19912;-73
2023/05/30 09:52:29;;;;;;;;;;;14.40;99.90;;;;;;5089721;28;19927;-73
2023/05/30 09:54:55;;;;;;;;;;;14.40;99.90;;;;;;5068652;28;19977;-73
2023/05/30 09:57:21;;;;;;;;;;;14.40;99.90;;;;;;5069800;28;19928;-74
2023/05/30 09:59:48;;;;;;;;;;;14.50;99.90;;;;;;5070313;28;19912;-72
2023/05/30 10:02:20;;;;;;;;;;;14.40;99.90;;;;;;5087648;28;19919;-74
2023/05/30 10:04:47;;;;;;;;;;;14.50;99.90;;;;;;5070800;28;19922;-73
2023/05/30 10:07:14;;;;;;;;;;;14.50;99.90;;;;;;5090261;28;19919;-72
2023/05/30 10:09:40;;;;;;;;;;;14.50;99.90;;;;;;5068469;28;19920;-72
2023/05/30 10:12:06;;;;;;;;;;;14.60;99.90;;;;;;5079649;28;19916;-74
2023/05/30 10:14:33;;;;;;;;;;;14.70;99.90;;;;;;5072089;28;19916;-74
2023/05/30 10:17:05;;;;;;;;;;;14.80;99.90;;;;;;5089248;28;19912;-74
2023/05/30 10:19:37;;;;;;;;;;;14.70;99.90;;;;;;5049483;28;19945;-73
2023/05/30 10:22:06;;;;;;;;;;;14.70;99.90;;;;;;5071039;28;19920;-74
2023/05/30 10:24:31;;;;;;;;;;;14.80;99.90;;;;;;5087400;28;19931;-74
2023/05/30 10:27:00;;;;;;;;;;;14.80;99.90;;;;;;5070384;28;19912;-72
2023/05/30 10:29:28;;;;;;;;;;;14.80;99.90;;;;;;5069460;28;19915;-74
2023/05/30 10:31:54;;;;;;;;;;;14.90;99.90;;;;;;5071265;28;19926;-72
2023/05/30 10:34:21;;;;;;;;;;;14.90;99.90;;;;;;5068587;28;19954;-72
2023/05/30 10:36:47;;;;;;;;;;;14.90;99.90;;;;;;5068574;28;19923;-71
2023/05/30 10:39:16;;;;;;;;;;;15.10;99.90;;;;;;5086206;28;19912;-74
2023/05/30 10:41:48;;;;;;;;;;;14.80;99.90;;;;;;5088139;28;20131;-74
2023/05/30 10:44:26;;;;;;;;;;;14.90;99.90;;;;;;5089336;28;19916;-72
2023/05/30 10:47:10;;;;;;;;;;;14.90;99.90;;;;;;5070275;28;19962;-72
2023/05/30 10:49:36;;;;;;;;;;;15.00;99.90;;;;;;5085785;28;20294;-72
2023/05/30 10:52:03;;;;;;;;;;;15.00;99.90;;;;;;5068839;28;19934;-72
2023/05/30 10:54:30;;;;;;;;;;;15.00;99.90;;;;;;5087095;28;19944;-72
2023/05/30 10:56:57;;;;;;;;;;;15.00;99.90;;;;;;5090370;28;19935;-71
2023/05/30 10:59:23;;;;;;;;;;;14.90;99.90;;;;;;5088015;28;20014;-74
2023/05/30 11:02:02;;;;;;;;;;;14.90;99.90;;;;;;5070163;28;20358;-71
2023/05/30 11:04:34;;;;;;;;;;;14.80;99.90;;;;;;5089720;28;20209;-71
2023/05/30 11:07:01;;;;;;;;;;;14.90;99.90;;;;;;5063722;28;19956;-75
2023/05/30 11:09:27;;;;;;;;;;;15.00;99.90;;;;;;5051996;28;20007;-71
2023/05/30 11:11:53;;;;;;;;;;;15.00;99.90;;;;;;5068238;28;19916;-71
2023/05/30 11:14:24;;;;;;;;;;;15.20;99.90;;;;;;5086492;28;19946;-72
2023/05/30 11:16:59;;;;;;;;;;;15.10;99.90;;;;;;5088304;28;19965;-73
2023/05/30 11:19:25;;;;;;;;;;;15.20;99.90;;;;;;5069003;28;20007;-72
2023/05/30 11:22:01;;;;;;;;;;;15.20;99.90;;;;;;5054748;28;19934;-71
2023/05/30 11:24:27;;;;;;;;;;;15.30;99.90;;;;;;5088737;28;20371;-72
2023/05/30 11:27:06;;;;;;;;;;;15.20;99.90;;;;;;5051166;28;20346;-73
2023/05/30 11:29:33;;;;;;;;;;;15.40;99.90;;;;;;5080029;28;19913;-73
2023/05/30 11:32:06;;;;;;;;;;;15.40;99.90;;;;;;5067327;28;20405;-72
2023/05/30 11:34:32;;;;;;;;;;;15.60;99.90;;;;;;5068815;28;19916;-73
2023/05/30 11:36:58;;;;;;;;;;;15.50;99.90;;;;;;5088153;28;19924;-73
2023/05/30 11:39:24;;;;;;;;;;;15.60;99.90;;;;;;5062409;28;20022;-72
2023/05/30 11:41:49;;;;;;;;;;;15.50;99.90;;;;;;5068703;28;19920;-73
2023/05/30 11:44:16;;;;;;;;;;;15.60;99.90;;;;;;5087538;28;19968;-71
2023/05/30 11:46:41;;;;;;;;;;;15.70;99.90;;;;;;5066448;28;19920;-71
2023/05/30 11:49:07;;;;;;;;;;;15.80;99.90;;;;;;5085590;28;19923;-71
2023/05/30 11:51:33;;;;;;;;;;;15.80;99.90;;;;;;5086936;28;19955;-72
2023/05/30 11:53:59;;;;;;;;;;;15.70;99.90;;;;;;5086898;28;19927;-73
2023/05/30 11:56:33;;;;;;;;;;;15.70;99.90;;;;;;5087471;28;19960;-73
2023/05/30 11:58:59;;;;;;;;;;;15.80;99.90;;;;;;5050439;28;19912;-73
2023/05/30 12:01:25;;;;;;;;;;;15.90;99.90;;;;;;5085921;28;19916;-73
2023/05/30 12:03:52;;;;;;;;;;;16.00;99.90;;;;;;5086666;28;19913;-73
2023/05/30 12:06:17;;;;;;;;;;;16.10;99.90;;;;;;5086728;28;19912;-73
2023/05/30 12:08:45;;;;;;;;;;;16.10;99.90;;;;;;5085982;28;19916;-73
2023/05/30 12:11:12;;;;;;;;;;;16.10;99.90;;;;;;5067585;28;19916;-73
2023/05/30 12:13:38;;;;;;;;;;;16.20;99.90;;;;;;5068211;28;19935;-72
2023/05/30 12:16:05;;;;;;;;;;;16.20;99.90;;;;;;5067032;28;19973;-73
2023/05/30 12:18:36;;;;;;;;;;;16.20;99.90;;;;;;5085890;28;20007;-73
2023/05/30 12:21:02;;;;;;;;;;;16.10;99.90;;;;;;5067012;28;19908;-71
2023/05/30 12:23:31;;;;;;;;;;;16.10;99.90;;;;;;5086317;28;20276;-73
2023/05/30 12:25:57;;;;;;;;;;;16.10;99.90;;;;;;5069045;28;19908;-72
2023/05/30 12:28:22;;;;;;;;;;;16.20;99.90;;;;;;5067720;28;19922;-73
2023/05/30 12:30:51;;;;;;;;;;;16.20;99.90;;;;;;5084827;28;21049;-71
2023/05/30 12:33:24;;;;;;;;;;;16.10;99.90;;;;;;5066682;28;20410;-71
2023/05/30 12:35:53;;;;;;;;;;;16.30;99.90;;;;;;5083202;28;20394;-72
2023/05/30 12:38:20;;;;;;;;;;;16.70;99.90;;;;;;5086068;28;19931;-72
2023/05/30 12:40:46;;;;;;;;;;;17.00;99.90;;;;;;5086342;28;19931;-71
2023/05/30 12:43:15;;;;;;;;;;;17.40;99.90;;;;;;5083864;28;19919;-74
2023/05/30 12:45:44;;;;;;;;;;;17.60;99.90;;;;;;5066538;28;20017;-73
2023/05/30 12:48:10;;;;;;;;;;;17.90;99.90;;;;;;5082115;28;19916;-74
2023/05/30 12:50:36;;;;;;;;;;;18.10;99.90;;;;;;5084919;28;20394;-72
2023/05/30 12:53:02;;;;;;;;;;;18.30;99.90;;;;;;5078346;28;19920;-73
2023/05/30 12:55:27;;;;;;;;;;;18.00;99.90;;;;;;5068245;28;19916;-72
2023/05/30 12:57:53;;;;;;;;;;;18.00;99.90;;;;;;5087148;28;19916;-72
2023/05/30 13:00:19;;;;;;;;;;;17.70;99.90;;;;;;5089198;28;19912;-73
2023/05/30 13:02:45;;;;;;;;;;;17.80;99.90;;;;;;5087470;28;19916;-74
2023/05/30 13:05:11;;;;;;;;;;;17.70;99.90;;;;;;5069270;28;19916;-72
2023/05/30 13:07:37;;;;;;;;;;;17.50;99.90;;;;;;5071691;28;19923;-73
2023/05/30 13:10:02;;;;;;;;;;;17.50;99.90;;;;;;5070848;28;19912;-72
2023/05/30 13:12:28;;;;;;;;;;;17.50;99.90;;;;;;5071384;28;19938;-73
2023/05/30 13:14:54;;;;;;;;;;;17.40;99.90;;;;;;5070761;28;20379;-72
2023/05/30 13:17:19;;;;;;;;;;;17.40;99.90;;;;;;5069828;28;19920;-72
2023/05/30 13:19:45;;;;;;;;;;;17.40;99.90;;;;;;5088829;28;19919;-72
2023/05/30 13:22:13;;;;;;;;;;;18.30;99.90;;;;;;5088653;28;19916;-72
2023/05/30 13:24:39;;;;;;;;;;;19.20;99.90;;;;;;5089392;28;19957;-74
2023/05/30 13:27:06;;;;;;;;;;;19.20;98.80;;;;;;5070587;28;19916;-73
2023/05/30 13:29:31;;;;;;;;;;;18.80;98.80;;;;;;5087906;28;20480;-74
2023/05/30 13:31:57;;;;;;;;;;;18.70;99.20;;;;;;5069523;28;19923;-74
2023/05/30 13:34:23;;;;;;;;;;;18.70;98.90;;;;;;5088488;28;19916;-72
2023/05/30 13:36:52;;;;;;;;;;;18.60;99.70;;;;;;5071603;28;19922;-74
2023/05/30 13:39:18;;;;;;;;;;;18.40;99.90;;;;;;5087914;28;19912;-75
2023/05/30 13:41:43;;;;;;;;;;;18.20;99.70;;;;;;5088958;28;20019;-74
2023/05/30 13:44:09;;;;;;;;;;;18.00;99.70;;;;;;5070599;28;19912;-72
2023/05/30 13:46:35;;;;;;;;;;;18.00;99.90;;;;;;5054586;28;19912;-74
2023/05/30 13:49:04;;;;;;;;;;;18.10;99.90;;;;;;5069432;28;20001;-74
2023/05/30 13:51:30;;;;;;;;;;;18.30;99.70;;;;;;5089669;28;20406;-74
2023/05/30 13:53:55;;;;;;;;;;;18.40;99.60;;;;;;5087241;28;19958;-72
2023/05/30 13:56:21;;;;;;;;;;;18.40;99.60;;;;;;5087846;28;19916;-73
2023/05/30 13:58:47;;;;;;;;;;;18.40;99.80;;;;;;5070949;28;20432;-73
2023/05/30 14:01:12;;;;;;;;;;;18.20;99.90;;;;;;5084589;28;19934;-76
2023/05/30 14:03:38;;;;;;;;;;;17.90;99.90;;;;;;5087515;28;20403;-73
2023/05/30 14:06:04;;;;;;;;;;;17.90;99.90;;;;;;5070536;28;19950;-73
2023/05/30 14:08:30;;;;;;;;;;;17.60;99.90;;;;;;5087724;28;19924;-74
2023/05/30 14:10:56;;;;;;;;;;;17.60;99.90;;;;;;5087169;28;19920;-74
2023/05/30 14:13:25;;;;;;;;;;;17.40;99.90;;;;;;5050488;28;19912;-74